»·PEaware :: QXE8999 KSFO-KLAS

QXE8999 :: KSFO-KLAS

FLIGHT INFORMATION

Flight Status: Arrived
Operator:
Horizon Air
More flights by this operator :: More flights under this callsign
Pilot: Robert N. (17753)
Aircraft: DEHAVILLAND DASH 8 400
(DH8D)
More flights by this aircraft type
Origin: KSFO San Francisco Intl
United States
Destination: KLAS McCarran Intl
United States
More flights between these airports :: More routes between these airports
Route: +GAPP7 NTELL Q162 KENNO BTY V105 LAS
File this flight plan on PilotEdge
Remarks: PBN / D1 DOF / 180104 REG / N847SB EET / KZLA0051 OPR / QXE PER / C RMK / TCAS SIMBRIEF
Altitude:
(Current/Filed)
25,000ft
Speed:
(Current/Filed)
325kts
Departed: 04-Jan-18 04:23 PM
Arrived: 04-Jan-18 05:46 PM
Distance/Time
Traveled:
359nm/1:22
Distance/Time
To Go:
Arrived

Flight Plot

Page will automatically refresh every two minutes.

Flight plan parsing failed; only flown route is shown


Map Options




Map Legend


Flown Route
Filed Route
Departure Airport
Arrival Airport
Navaid (VOR, NDB)
Fix

Horizontal Profiles

Position Reports

Time Latitude Longitude Heading Altitude Ground
Speed
04-Jan-18 15:28 37.620270 -122.386790 296 20ft 0kts
04-Jan-18 15:29 37.620270 -122.386790 296 20ft 0kts
04-Jan-18 15:30 37.620270 -122.386790 296 20ft 0kts
04-Jan-18 15:31 37.620270 -122.386790 296 20ft 0kts
04-Jan-18 15:32 37.620270 -122.386790 296 20ft 0kts
04-Jan-18 15:33 37.620270 -122.386790 296 20ft 0kts
04-Jan-18 15:34 37.620270 -122.386790 296 20ft 0kts
04-Jan-18 15:35 37.620270 -122.386790 296 20ft 0kts
04-Jan-18 15:36 37.620270 -122.386790 296 20ft 0kts
04-Jan-18 15:37 37.620270 -122.386790 296 20ft 0kts
04-Jan-18 15:38 37.620270 -122.386790 296 20ft 0kts
04-Jan-18 15:39 37.620270 -122.386790 296 20ft 0kts
04-Jan-18 15:40 37.620270 -122.386790 296 20ft 0kts
04-Jan-18 15:41 37.620270 -122.386790 296 20ft 0kts
04-Jan-18 15:42 37.620270 -122.386790 296 20ft 0kts
04-Jan-18 15:43 37.620270 -122.386790 296 20ft 0kts
04-Jan-18 15:44 37.620270 -122.386790 296 20ft 0kts
04-Jan-18 15:45 37.620270 -122.386790 296 20ft 0kts
04-Jan-18 15:46 37.620270 -122.386790 296 20ft 0kts
04-Jan-18 15:47 37.620270 -122.386790 296 20ft 0kts
04-Jan-18 15:48 37.620241 -122.386717 298 20ft 2kts
04-Jan-18 15:49 37.619802 -122.386256 19 20ft 2kts
04-Jan-18 15:50 37.619676 -122.386334 28 20ft 0kts
04-Jan-18 15:51 37.619676 -122.386334 28 20ft 0kts
04-Jan-18 15:52 37.619809 -122.386243 28 20ft 3kts
04-Jan-18 15:53 37.619975 -122.386235 332 20ft 2kts
04-Jan-18 15:54 37.620211 -122.386650 298 20ft 0kts
04-Jan-18 15:55 37.620211 -122.386650 298 20ft 0kts
04-Jan-18 15:56 37.620211 -122.386650 298 20ft 0kts
04-Jan-18 15:57 37.620211 -122.386650 298 20ft 0kts
04-Jan-18 15:58 37.620211 -122.386650 298 20ft 0kts
04-Jan-18 15:59 37.620211 -122.386650 298 20ft 0kts
04-Jan-18 16:00 37.620211 -122.386650 298 20ft 0kts
04-Jan-18 16:01 37.620211 -122.386650 298 20ft 0kts
04-Jan-18 16:02 37.620211 -122.386650 298 20ft 0kts
04-Jan-18 16:03 37.620211 -122.386650 298 20ft 0kts
04-Jan-18 16:04 37.620211 -122.386650 298 20ft 0kts
04-Jan-18 16:05 37.620211 -122.386650 298 20ft 0kts
04-Jan-18 16:06 37.620211 -122.386650 298 20ft 0kts
04-Jan-18 16:07 37.620211 -122.386650 298 20ft 0kts
04-Jan-18 16:08 37.620211 -122.386650 298 20ft 0kts
04-Jan-18 16:09 37.620211 -122.386650 298 20ft 0kts
04-Jan-18 16:10 37.620211 -122.386650 298 20ft 0kts
04-Jan-18 16:11 37.620211 -122.386650 298 20ft 0kts
04-Jan-18 16:12 37.620211 -122.386650 298 20ft 0kts
04-Jan-18 16:13 37.620211 -122.386650 298 20ft 0kts
04-Jan-18 16:14 37.620211 -122.386650 298 20ft 0kts
04-Jan-18 16:15 37.620211 -122.386650 298 20ft 0kts
04-Jan-18 16:16 37.619899 -122.385939 299 20ft 0kts
04-Jan-18 16:17 37.619899 -122.385939 299 20ft 0kts
04-Jan-18 16:18 37.619899 -122.385940 299 20ft 0kts
04-Jan-18 16:19 37.620643 -122.385703 26 20ft 7kts
04-Jan-18 16:20 37.619807 -122.382496 118 20ft 11kts
04-Jan-18 16:21 37.618487 -122.380101 178 20ft 4kts
04-Jan-18 16:22 37.615920 -122.380167 207 20ft 10kts
04-Jan-18 16:23 37.613208 -122.381928 208 20ft 11kts
04-Jan-18 16:24 37.610708 -122.383581 207 20ft 6kts
04-Jan-18 16:25 37.609565 -122.383387 118 20ft 0kts
04-Jan-18 16:26 37.609565 -122.383387 118 20ft 0kts
04-Jan-18 16:27 37.609565 -122.383387 118 20ft 0kts
04-Jan-18 16:28 37.609239 -122.382235 74 20ft 8kts
04-Jan-18 16:29 37.611797 -122.380333 26 20ft 72kts
04-Jan-18 16:30 37.646564 -122.357608 28 1572ft 169kts
04-Jan-18 16:31 37.690585 -122.320449 40 3754ft 209kts
04-Jan-18 16:32 37.679690 -122.258700 161 6050ft 207kts
04-Jan-18 16:33 37.626589 -122.238158 130 8825ft 207kts
04-Jan-18 16:34 37.606337 -122.164021 111 10783ft 246kts
04-Jan-18 16:35 37.585926 -122.077670 111 12281ft 268kts
04-Jan-18 16:36 37.564640 -121.985530 111 13786ft 276kts
04-Jan-18 16:37 37.543453 -121.891973 111 15283ft 278kts
04-Jan-18 16:38 37.522350 -121.798004 117 16765ft 272kts
04-Jan-18 16:39 37.481382 -121.722299 112 17897ft 287kts
04-Jan-18 16:40 37.457823 -121.624851 113 18897ft 294kts
04-Jan-18 16:41 37.433312 -121.525637 113 19900ft 297kts
04-Jan-18 16:42 37.409125 -121.427070 113 20888ft 297kts
04-Jan-18 16:43 37.382690 -121.331716 116 21860ft 294kts
04-Jan-18 16:44 37.354852 -121.234253 116 22860ft 293kts
04-Jan-18 16:45 37.323340 -121.141086 120 23714ft 293kts
04-Jan-18 16:46 37.289198 -121.046103 120 24216ft 305kts
04-Jan-18 16:47 37.253587 -120.947772 120 24717ft 313kts
04-Jan-18 16:48 37.217286 -120.847400 120 25095ft 322kts
04-Jan-18 16:49 37.176697 -120.745169 123 25125ft 335kts
04-Jan-18 16:50 37.132671 -120.639126 123 25121ft 346kts
04-Jan-18 16:51 37.088979 -120.530914 115 25124ft 359kts
04-Jan-18 16:52 37.059745 -120.410495 115 25127ft 365kts
04-Jan-18 16:53 37.023135 -120.294080 116 25132ft 368kts
04-Jan-18 16:54 36.987004 -120.174775 115 25136ft 371kts
04-Jan-18 16:55 36.950224 -120.054061 116 25138ft 372kts
04-Jan-18 16:56 36.913152 -119.933866 114 25142ft 374kts
04-Jan-18 16:57 36.924723 -119.806791 61 25149ft 385kts
04-Jan-18 16:58 36.968017 -119.684908 67 25154ft 386kts
04-Jan-18 16:59 37.007090 -119.559893 66 25158ft 386kts
04-Jan-18 17:00 37.047708 -119.435771 66 25162ft 386kts
04-Jan-18 17:01 37.087530 -119.312339 66 25169ft 386kts
04-Jan-18 17:02 37.127537 -119.187981 66 25179ft 385kts
04-Jan-18 17:03 37.167205 -119.064246 66 25191ft 385kts
04-Jan-18 17:04 37.207135 -118.939093 66 25204ft 384kts
04-Jan-18 17:05 37.246618 -118.814813 66 25214ft 384kts
04-Jan-18 17:06 37.281868 -118.688670 80 25194ft 384kts
04-Jan-18 17:07 37.290724 -118.555602 83 25183ft 383kts
04-Jan-18 17:08 37.303961 -118.423495 82 25171ft 381kts
04-Jan-18 17:09 37.315674 -118.293043 83 25166ft 380kts
04-Jan-18 17:10 37.327367 -118.160958 82 25166ft 379kts
04-Jan-18 17:11 37.338843 -118.030550 82 25167ft 379kts
04-Jan-18 17:12 37.350013 -117.898871 85 25167ft 379kts
04-Jan-18 17:13 37.339440 -117.768452 98 25174ft 377kts
04-Jan-18 17:14 37.327860 -117.638951 95 25179ft 377kts
04-Jan-18 17:15 37.316562 -117.509054 97 25186ft 377kts
04-Jan-18 17:16 37.304505 -117.379773 97 25190ft 377kts
04-Jan-18 17:17 37.263944 -117.266908 144 25198ft 361kts
04-Jan-18 17:18 37.187596 -117.186030 141 25193ft 364kts
04-Jan-18 17:19 37.114602 -117.101047 142 25192ft 362kts
04-Jan-18 17:20 37.039759 -117.016934 142 25199ft 362kts
04-Jan-18 17:21 36.966145 -116.933835 142 25197ft 362kts
04-Jan-18 17:22 36.891888 -116.850124 142 25095ft 358kts
04-Jan-18 17:23 36.818595 -116.767923 142 23455ft 314kts
04-Jan-18 17:24 36.753413 -116.700569 147 24587ft 298kts
04-Jan-18 17:25 36.682014 -116.633655 146 24211ft 335kts
04-Jan-18 17:26 36.607804 -116.562017 146 24197ft 348kts
04-Jan-18 17:27 36.530192 -116.487435 146 24195ft 356kts
04-Jan-18 17:28 36.452705 -116.413310 145 24194ft 359kts
04-Jan-18 17:29 36.373462 -116.337635 145 23391ft 368kts
04-Jan-18 17:30 36.293800 -116.261646 145 22404ft 365kts
04-Jan-18 17:31 36.231412 -116.202429 145 21474ft 363kts
04-Jan-18 17:32 36.153241 -116.128235 145 19846ft 352kts
04-Jan-18 17:33 36.079247 -116.058206 145 18092ft 327kts
04-Jan-18 17:34 36.031831 -115.971127 92 17096ft 321kts
04-Jan-18 17:35 36.037399 -115.863839 83 16243ft 313kts
04-Jan-18 17:36 36.043192 -115.775656 84 16020ft 308kts
04-Jan-18 17:37 36.049339 -115.672984 86 16004ft 305kts
04-Jan-18 17:38 36.045451 -115.566987 93 15095ft 321kts
04-Jan-18 17:39 36.041034 -115.463560 92 14102ft 298kts
04-Jan-18 17:40 36.037861 -115.381096 92 12464ft 282kts
04-Jan-18 17:41 36.034894 -115.289806 92 11118ft 242kts
04-Jan-18 17:42 36.031268 -115.198539 92 11018ft 287kts
04-Jan-18 17:43 36.027277 -115.095590 92 11006ft 304kts
04-Jan-18 17:44 36.034388 -114.994025 52 11005ft 303kts
04-Jan-18 17:45 36.104994 -114.945536 22 10300ft 281kts
04-Jan-18 17:46 36.174687 -114.926573 329 8893ft 247kts
04-Jan-18 17:47 36.201214 -114.993049 276 7183ft 213kts
04-Jan-18 17:48 36.208774 -115.059795 272 5803ft 188kts
04-Jan-18 17:49 36.191749 -115.117062 208 5531ft 186kts
04-Jan-18 17:50 36.147120 -115.132351 195 3665ft 156kts
04-Jan-18 17:51 36.108316 -115.151182 206 2484ft 148kts
04-Jan-18 17:52 36.083213 -115.165734 207 2188ft 32kts
04-Jan-18 17:53 36.081532 -115.165172 99 2188ft 0kts
04-Jan-18 17:54 36.081532 -115.165172 99 2188ft 0kts
04-Jan-18 17:55 36.081525 -115.159962 89 2188ft 28kts
04-Jan-18 17:56 36.081535 -115.155599 90 2188ft 0kts
04-Jan-18 17:57 36.080747 -115.154486 150 2188ft 12kts
04-Jan-18 17:58 36.078686 -115.150451 92 2188ft 20kts
04-Jan-18 17:59 36.078995 -115.148619 17 2188ft 9kts
04-Jan-18 18:00 36.080228 -115.147393 67 2188ft 0kts
04-Jan-18 18:01 36.080228 -115.147393 67 2188ft 0kts
04-Jan-18 18:02 36.080228 -115.147393 67 2188ft 0kts
04-Jan-18 18:03 36.080228 -115.147393 67 2188ft 0kts
04-Jan-18 18:04 36.080228 -115.147393 67 2188ft 0kts
04-Jan-18 18:05 36.080228 -115.147393 67 2188ft 0kts
04-Jan-18 18:06 36.080228 -115.147393 67 2188ft 0kts

Navigation Log

Ident Type
Flight plan parsing failed, navigation log unavailable